sensor_id;sensor_type;location;lat;lon;timestamp;temperature;humidity
11744;DHT22;5929;51.906;7.674;2022-11-02T00:01:51;12.70;99.10
11744;DHT22;5929;51.906;7.674;2022-11-02T00:04:18;12.80;99.20
11744;DHT22;5929;51.906;7.674;2022-11-02T00:06:46;12.70;99.30
11744;DHT22;5929;51.906;7.674;2022-11-02T00:09:13;12.70;99.30
11744;DHT22;5929;51.906;7.674;2022-11-02T00:11:40;12.70;99.40
11744;DHT22;5929;51.906;7.674;2022-11-02T00:14:09;12.80;99.30
11744;DHT22;5929;51.906;7.674;2022-11-02T00:16:37;12.80;99.40
11744;DHT22;5929;51.906;7.674;2022-11-02T00:19:05;12.80;99.40
11744;DHT22;5929;51.906;7.674;2022-11-02T00:21:32;12.80;99.40
11744;DHT22;5929;51.906;7.674;2022-11-02T00:24:01;12.90;99.50
11744;DHT22;5929;51.906;7.674;2022-11-02T00:26:32;12.90;99.60
11744;DHT22;5929;51.906;7.674;2022-11-02T00:29:00;12.90;99.40
11744;DHT22;5929;51.906;7.674;2022-11-02T00:31:27;12.90;99.40
11744;DHT22;5929;51.906;7.674;2022-11-02T00:33:54;12.90;99.50
11744;DHT22;5929;51.906;7.674;2022-11-02T00:36:21;12.90;99.50
11744;DHT22;5929;51.906;7.674;2022-11-02T00:38:49;12.90;99.50
11744;DHT22;5929;51.906;7.674;2022-11-02T00:41:18;13.00;99.60
11744;DHT22;5929;51.906;7.674;2022-11-02T00:43:46;13.00;99.60
11744;DHT22;5929;51.906;7.674;2022-11-02T00:46:13;13.00;99.50
11744;DHT22;5929;51.906;7.674;2022-11-02T00:48:40;13.00;99.40
11744;DHT22;5929;51.906;7.674;2022-11-02T00:51:07;13.10;99.60
11744;DHT22;5929;51.906;7.674;2022-11-02T00:53:35;13.10;99.90
11744;DHT22;5929;51.906;7.674;2022-11-02T00:56:03;13.00;99.90
11744;DHT22;5929;51.906;7.674;2022-11-02T00:58:31;13.00;99.90
11744;DHT22;5929;51.906;7.674;2022-11-02T01:00:59;12.90;99.90
11744;DHT22;5929;51.906;7.674;2022-11-02T01:03:29;12.70;99.90
11744;DHT22;5929;51.906;7.674;2022-11-02T01:05:58;12.70;99.90
11744;DHT22;5929;51.906;7.674;2022-11-02T01:08:25;12.70;99.90
11744;DHT22;5929;51.906;7.674;2022-11-02T01:10:51;12.60;99.90
11744;DHT22;5929;51.906;7.674;2022-11-02T01:13:18;12.60;99.90
11744;DHT22;5929;51.906;7.674;2022-11-02T01:15:46;12.60;99.90
11744;DHT22;5929;51.906;7.674;2022-11-02T01:18:13;12.60;99.90
11744;DHT22;5929;51.906;7.674;2022-11-02T01:20:40;12.70;99.90
11744;DHT22;5929;51.906;7.674;2022-11-02T01:23:07;12.70;99.90
11744;DHT22;5929;51.906;7.674;2022-11-02T01:25:36;12.70;99.90
11744;DHT22;5929;51.906;7.674;2022-11-02T01:28:03;12.70;99.90
11744;DHT22;5929;51.906;7.674;2022-11-02T01:30:30;12.80;99.90
11744;DHT22;5929;51.906;7.674;2022-11-02T01:32:58;12.80;99.90
11744;DHT22;5929;51.906;7.674;2022-11-02T01:35:25;12.90;99.90
11744;DHT22;5929;51.906;7.674;2022-11-02T01:37:52;12.90;99.90
11744;DHT22;5929;51.906;7.674;2022-11-02T01:40:18;12.90;99.90
11744;DHT22;5929;51.906;7.674;2022-11-02T01:42:46;12.90;99.90
11744;DHT22;5929;51.906;7.674;2022-11-02T01:45:13;13.00;99.90
11744;DHT22;5929;51.906;7.674;2022-11-02T01:47:42;13.00;99.90
11744;DHT22;5929;51.906;7.674;2022-11-02T01:50:15;13.10;99.90
11744;DHT22;5929;51.906;7.674;2022-11-02T01:52:44;13.10;99.90
11744;DHT22;5929;51.906;7.674;2022-11-02T01:55:13;13.10;99.90
11744;DHT22;5929;51.906;7.674;2022-11-02T01:57:44;13.10;99.90
11744;DHT22;5929;51.906;7.674;2022-11-02T02:00:14;13.00;99.90
11744;DHT22;5929;51.906;7.674;2022-11-02T02:02:46;13.00;99.90
11744;DHT22;5929;51.906;7.674;2022-11-02T02:05:15;12.90;99.90
11744;DHT22;5929;51.906;7.674;2022-11-02T02:07:43;12.90;99.90
11744;DHT22;5929;51.906;7.674;2022-11-02T02:10:10;12.90;99.90
11744;DHT22;5929;51.906;7.674;2022-11-02T02:12:38;12.90;99.90
11744;DHT22;5929;51.906;7.674;2022-11-02T02:15:07;12.90;99.90
11744;DHT22;5929;51.906;7.674;2022-11-02T02:17:41;12.90;99.90
11744;DHT22;5929;51.906;7.674;2022-11-02T02:20:23;12.90;99.90
11744;DHT22;5929;51.906;7.674;2022-11-02T02:23:07;12.90;99.90
11744;DHT22;5929;51.906;7.674;2022-11-02T02:28:35;12.80;99.90
11744;DHT22;5929;51.906;7.674;2022-11-02T02:31:10;12.80;99.90
11744;DHT22;5929;51.906;7.674;2022-11-02T02:33:47;12.80;99.90
11744;DHT22;5929;51.906;7.674;2022-11-02T02:36:20;12.80;99.90
11744;DHT22;5929;51.906;7.674;2022-11-02T02:38:57;12.80;99.90
11744;DHT22;5929;51.906;7.674;2022-11-02T02:41:35;12.80;99.90
11744;DHT22;5929;51.906;7.674;2022-11-02T02:44:05;12.80;99.90
11744;DHT22;5929;51.906;7.674;2022-11-02T02:46:38;12.80;99.90
11744;DHT22;5929;51.906;7.674;2022-11-02T02:49:10;12.70;99.90
11744;DHT22;5929;51.906;7.674;2022-11-02T02:51:38;12.70;99.90
11744;DHT22;5929;51.906;7.674;2022-11-02T02:54:08;12.60;99.90
11744;DHT22;5929;51.906;7.674;2022-11-02T02:56:40;12.60;99.90
11744;DHT22;5929;51.906;7.674;2022-11-02T02:59:15;12.60;99.90
11744;DHT22;5929;51.906;7.674;2022-11-02T03:01:44;12.50;99.90
11744;DHT22;5929;51.906;7.674;2022-11-02T03:04:11;12.50;99.90
11744;DHT22;5929;51.906;7.674;2022-11-02T03:06:41;12.50;99.90
11744;DHT22;5929;51.906;7.674;2022-11-02T03:09:12;12.50;99.90
11744;DHT22;5929;51.906;7.674;2022-11-02T03:11:49;12.40;99.90
11744;DHT22;5929;51.906;7.674;2022-11-02T03:14:31;12.50;99.90
11744;DHT22;5929;51.906;7.674;2022-11-02T03:17:13;12.50;99.90
11744;DHT22;5929;51.906;7.674;2022-11-02T03:19:49;12.40;99.90
11744;DHT22;5929;51.906;7.674;2022-11-02T03:22:24;12.40;99.90
11744;DHT22;5929;51.906;7.674;2022-11-02T03:24:57;12.30;99.90
11744;DHT22;5929;51.906;7.674;2022-11-02T03:27:34;12.30;99.90
11744;DHT22;5929;51.906;7.674;2022-11-02T03:30:05;12.30;99.90
11744;DHT22;5929;51.906;7.674;2022-11-02T03:32:37;12.40;99.90
11744;DHT22;5929;51.906;7.674;2022-11-02T03:35:14;12.40;99.90
11744;DHT22;5929;51.906;7.674;2022-11-02T03:37:46;12.50;99.90
11744;DHT22;5929;51.906;7.674;2022-11-02T03:40:17;12.50;99.90
11744;DHT22;5929;51.906;7.674;2022-11-02T03:42:45;12.60;99.90
11744;DHT22;5929;51.906;7.674;2022-11-02T03:45:17;12.60;99.90
11744;DHT22;5929;51.906;7.674;2022-11-02T03:47:49;12.70;99.90
11744;DHT22;5929;51.906;7.674;2022-11-02T03:50:19;12.70;99.90
11744;DHT22;5929;51.906;7.674;2022-11-02T03:52:49;12.70;99.90
11744;DHT22;5929;51.906;7.674;2022-11-02T03:55:19;12.70;99.90
11744;DHT22;5929;51.906;7.674;2022-11-02T03:57:49;12.80;99.90
11744;DHT22;5929;51.906;7.674;2022-11-02T04:00:19;12.70;99.90
11744;DHT22;5929;51.906;7.674;2022-11-02T04:02:48;12.70;99.90
11744;DHT22;5929;51.906;7.674;2022-11-02T04:05:16;12.70;99.90
11744;DHT22;5929;51.906;7.674;2022-11-02T04:07:45;12.70;99.90
11744;DHT22;5929;51.906;7.674;2022-11-02T04:10:31;12.70;99.90
11744;DHT22;5929;51.906;7.674;2022-11-02T04:13:00;12.80;99.90
11744;DHT22;5929;51.906;7.674;2022-11-02T04:15:49;12.80;99.90
11744;DHT22;5929;51.906;7.674;2022-11-02T04:18:16;12.80;99.90
11744;DHT22;5929;51.906;7.674;2022-11-02T04:21:01;12.80;99.90
11744;DHT22;5929;51.906;7.674;2022-11-02T04:23:27;12.80;99.90
11744;DHT22;5929;51.906;7.674;2022-11-02T04:26:14;12.80;99.90
11744;DHT22;5929;51.906;7.674;2022-11-02T04:28:43;12.80;99.90
11744;DHT22;5929;51.906;7.674;2022-11-02T04:31:11;12.70;99.90
11744;DHT22;5929;51.906;7.674;2022-11-02T04:33:38;12.80;99.90
11744;DHT22;5929;51.906;7.674;2022-11-02T04:36:06;12.70;99.90
11744;DHT22;5929;51.906;7.674;2022-11-02T04:38:33;12.70;99.90
11744;DHT22;5929;51.906;7.674;2022-11-02T04:41:05;12.70;99.90
11744;DHT22;5929;51.906;7.674;2022-11-02T04:43:46;12.70;99.90
11744;DHT22;5929;51.906;7.674;2022-11-02T04:46:14;12.70;99.90
11744;DHT22;5929;51.906;7.674;2022-11-02T04:48:43;12.70;99.90
11744;DHT22;5929;51.906;7.674;2022-11-02T04:51:10;12.60;99.90
11744;DHT22;5929;51.906;7.674;2022-11-02T04:53:37;12.60;99.90
11744;DHT22;5929;51.906;7.674;2022-11-02T04:56:04;12.60;99.90
11744;DHT22;5929;51.906;7.674;2022-11-02T04:58:31;12.60;99.90
11744;DHT22;5929;51.906;7.674;2022-11-02T05:00:58;12.60;99.90
11744;DHT22;5929;51.906;7.674;2022-11-02T05:03:30;12.60;99.90
11744;DHT22;5929;51.906;7.674;2022-11-02T05:05:57;12.50;99.90
11744;DHT22;5929;51.906;7.674;2022-11-02T05:08:24;12.50;99.90
11744;DHT22;5929;51.906;7.674;2022-11-02T05:10:53;12.50;99.90
11744;DHT22;5929;51.906;7.674;2022-11-02T05:13:20;12.50;99.90
11744;DHT22;5929;51.906;7.674;2022-11-02T05:15:49;12.50;99.90
11744;DHT22;5929;51.906;7.674;2022-11-02T05:18:16;12.60;99.90
11744;DHT22;5929;51.906;7.674;2022-11-02T05:20:48;12.60;99.90
11744;DHT22;5929;51.906;7.674;2022-11-02T05:23:16;12.70;99.90
11744;DHT22;5929;51.906;7.674;2022-11-02T05:25:51;12.60;99.90
11744;DHT22;5929;51.906;7.674;2022-11-02T05:28:18;12.60;99.90
11744;DHT22;5929;51.906;7.674;2022-11-02T05:30:45;12.60;99.90
11744;DHT22;5929;51.906;7.674;2022-11-02T05:33:12;12.60;99.90
11744;DHT22;5929;51.906;7.674;2022-11-02T05:35:39;12.60;99.90
11744;DHT22;5929;51.906;7.674;2022-11-02T05:38:08;12.60;99.90
11744;DHT22;5929;51.906;7.674;2022-11-02T05:40:35;12.50;99.90
11744;DHT22;5929;51.906;7.674;2022-11-02T05:43:05;12.60;99.90
11744;DHT22;5929;51.906;7.674;2022-11-02T05:45:33;12.60;99.90
11744;DHT22;5929;51.906;7.674;2022-11-02T05:48:00;12.60;99.90
11744;DHT22;5929;51.906;7.674;2022-11-02T05:50:28;12.60;99.90
11744;DHT22;5929;51.906;7.674;2022-11-02T05:52:55;12.60;99.90
11744;DHT22;5929;51.906;7.674;2022-11-02T05:55:23;12.50;99.90
11744;DHT22;5929;51.906;7.674;2022-11-02T05:57:51;12.60;99.90
11744;DHT22;5929;51.906;7.674;2022-11-02T06:00:18;12.50;99.90
11744;DHT22;5929;51.906;7.674;2022-11-02T06:02:45;12.50;99.90
11744;DHT22;5929;51.906;7.674;2022-11-02T06:05:12;12.50;99.90
11744;DHT22;5929;51.906;7.674;2022-11-02T06:07:39;12.40;99.90
11744;DHT22;5929;51.906;7.674;2022-11-02T06:10:07;12.40;99.90
11744;DHT22;5929;51.906;7.674;2022-11-02T06:12:35;12.40;99.90
11744;DHT22;5929;51.906;7.674;2022-11-02T06:15:02;12.40;99.90
11744;DHT22;5929;51.906;7.674;2022-11-02T06:17:35;12.50;99.90
11744;DHT22;5929;51.906;7.674;2022-11-02T06:20:03;12.50;99.90
11744;DHT22;5929;51.906;7.674;2022-11-02T06:22:31;12.40;99.90
11744;DHT22;5929;51.906;7.674;2022-11-02T06:25:04;12.40;99.90
11744;DHT22;5929;51.906;7.674;2022-11-02T06:27:30;12.40;99.90
11744;DHT22;5929;51.906;7.674;2022-11-02T06:30:01;12.50;99.90
11744;DHT22;5929;51.906;7.674;2022-11-02T06:32:29;12.50;99.90
11744;DHT22;5929;51.906;7.674;2022-11-02T06:34:56;12.60;99.90
11744;DHT22;5929;51.906;7.674;2022-11-02T06:37:22;12.60;99.90
11744;DHT22;5929;51.906;7.674;2022-11-02T06:39:52;12.60;99.90
11744;DHT22;5929;51.906;7.674;2022-11-02T06:42:18;12.60;99.90
11744;DHT22;5929;51.906;7.674;2022-11-02T06:44:45;12.60;99.90
11744;DHT22;5929;51.906;7.674;2022-11-02T06:47:13;12.70;99.90
11744;DHT22;5929;51.906;7.674;2022-11-02T06:49:40;12.70;99.90
11744;DHT22;5929;51.906;7.674;2022-11-02T06:52:07;12.70;99.90
11744;DHT22;5929;51.906;7.674;2022-11-02T06:54:35;12.70;99.90
11744;DHT22;5929;51.906;7.674;2022-11-02T06:57:01;12.70;99.90
11744;DHT22;5929;51.906;7.674;2022-11-02T06:59:28;12.70;99.90
11744;DHT22;5929;51.906;7.674;2022-11-02T07:01:55;12.70;99.90
11744;DHT22;5929;51.906;7.674;2022-11-02T07:04:23;12.70;99.90
11744;DHT22;5929;51.906;7.674;2022-11-02T07:06:50;12.70;99.90
11744;DHT22;5929;51.906;7.674;2022-11-02T07:09:17;12.60;99.90
11744;DHT22;5929;51.906;7.674;2022-11-02T07:11:44;12.60;99.90
11744;DHT22;5929;51.906;7.674;2022-11-02T07:14:10;12.50;99.90
11744;DHT22;5929;51.906;7.674;2022-11-02T07:16:37;12.50;99.90
11744;DHT22;5929;51.906;7.674;2022-11-02T07:19:04;12.50;99.90
11744;DHT22;5929;51.906;7.674;2022-11-02T07:21:32;12.40;99.90
11744;DHT22;5929;51.906;7.674;2022-11-02T07:23:59;12.50;99.90
11744;DHT22;5929;51.906;7.674;2022-11-02T07:26:26;12.50;99.90
11744;DHT22;5929;51.906;7.674;2022-11-02T07:28:53;12.50;99.90
11744;DHT22;5929;51.906;7.674;2022-11-02T07:31:20;12.50;99.90
11744;DHT22;5929;51.906;7.674;2022-11-02T07:33:46;12.40;99.90
11744;DHT22;5929;51.906;7.674;2022-11-02T07:36:13;12.40;99.90
11744;DHT22;5929;51.906;7.674;2022-11-02T07:38:44;12.40;99.90
11744;DHT22;5929;51.906;7.674;2022-11-02T07:41:11;12.50;99.90
11744;DHT22;5929;51.906;7.674;2022-11-02T07:43:38;12.60;99.90
11744;DHT22;5929;51.906;7.674;2022-11-02T07:46:05;12.60;99.90
11744;DHT22;5929;51.906;7.674;2022-11-02T07:48:32;12.70;99.90
11744;DHT22;5929;51.906;7.674;2022-11-02T07:51:00;12.70;99.90
11744;DHT22;5929;51.906;7.674;2022-11-02T07:53:27;12.80;99.90
11744;DHT22;5929;51.906;7.674;2022-11-02T07:55:55;12.80;99.90
11744;DHT22;5929;51.906;7.674;2022-11-02T07:58:22;12.80;99.90
11744;DHT22;5929;51.906;7.674;2022-11-02T08:00:49;12.80;99.90
11744;DHT22;5929;51.906;7.674;2022-11-02T08:03:16;12.80;99.90
11744;DHT22;5929;51.906;7.674;2022-11-02T08:05:43;12.80;99.90
11744;DHT22;5929;51.906;7.674;2022-11-02T08:08:11;12.80;99.90
11744;DHT22;5929;51.906;7.674;2022-11-02T08:10:38;12.90;99.90
11744;DHT22;5929;51.906;7.674;2022-11-02T08:13:11;12.90;99.90
11744;DHT22;5929;51.906;7.674;2022-11-02T08:15:38;12.90;99.90
11744;DHT22;5929;51.906;7.674;2022-11-02T08:18:06;12.90;99.90
11744;DHT22;5929;51.906;7.674;2022-11-02T08:20:35;12.90;99.90
11744;DHT22;5929;51.906;7.674;2022-11-02T08:23:03;12.90;99.90
11744;DHT22;5929;51.906;7.674;2022-11-02T08:25:30;12.90;99.90
11744;DHT22;5929;51.906;7.674;2022-11-02T08:27:57;12.90;99.90
11744;DHT22;5929;51.906;7.674;2022-11-02T08:30:27;12.90;99.90
11744;DHT22;5929;51.906;7.674;2022-11-02T08:32:55;12.90;99.80
11744;DHT22;5929;51.906;7.674;2022-11-02T08:35:27;12.90;99.80
11744;DHT22;5929;51.906;7.674;2022-11-02T08:37:55;12.90;99.90
11744;DHT22;5929;51.906;7.674;2022-11-02T08:40:24;12.90;99.90
11744;DHT22;5929;51.906;7.674;2022-11-02T08:42:55;12.90;99.60
11744;DHT22;5929;51.906;7.674;2022-11-02T08:45:22;12.90;99.60
11744;DHT22;5929;51.906;7.674;2022-11-02T08:47:50;13.00;99.60
11744;DHT22;5929;51.906;7.674;2022-11-02T08:50:17;13.00;99.40
11744;DHT22;5929;51.906;7.674;2022-11-02T08:52:43;13.00;99.20
11744;DHT22;5929;51.906;7.674;2022-11-02T08:55:10;12.90;99.40
11744;DHT22;5929;51.906;7.674;2022-11-02T08:57:44;13.00;99.70
11744;DHT22;5929;51.906;7.674;2022-11-02T09:00:11;13.00;99.90
11744;DHT22;5929;51.906;7.674;2022-11-02T09:02:42;13.10;99.60
11744;DHT22;5929;51.906;7.674;2022-11-02T09:05:10;13.10;99.30
11744;DHT22;5929;51.906;7.674;2022-11-02T09:07:37;13.10;99.40
11744;DHT22;5929;51.906;7.674;2022-11-02T09:10:05;13.10;99.70
11744;DHT22;5929;51.906;7.674;2022-11-02T09:12:33;13.20;99.40
11744;DHT22;5929;51.906;7.674;2022-11-02T09:15:00;13.20;99.10
11744;DHT22;5929;51.906;7.674;2022-11-02T09:17:28;13.30;99.20
11744;DHT22;5929;51.906;7.674;2022-11-02T09:19:57;13.30;99.10
11744;DHT22;5929;51.906;7.674;2022-11-02T09:22:25;13.40;99.20
11744;DHT22;5929;51.906;7.674;2022-11-02T09:24:52;13.50;98.90
11744;DHT22;5929;51.906;7.674;2022-11-02T09:27:19;13.40;98.50
11744;DHT22;5929;51.906;7.674;2022-11-02T09:29:45;13.50;98.90
11744;DHT22;5929;51.906;7.674;2022-11-02T09:32:12;13.60;98.20
11744;DHT22;5929;51.906;7.674;2022-11-02T09:34:39;13.60;98.30
11744;DHT22;5929;51.906;7.674;2022-11-02T09:37:06;13.70;98.00
11744;DHT22;5929;51.906;7.674;2022-11-02T09:39:34;13.80;97.90
11744;DHT22;5929;51.906;7.674;2022-11-02T09:42:05;13.90;97.80
11744;DHT22;5929;51.906;7.674;2022-11-02T09:44:41;13.80;97.70
11744;DHT22;5929;51.906;7.674;2022-11-02T09:47:12;13.90;97.60
11744;DHT22;5929;51.906;7.674;2022-11-02T09:49:42;13.90;97.40
11744;DHT22;5929;51.906;7.674;2022-11-02T09:52:11;13.90;97.50
11744;DHT22;5929;51.906;7.674;2022-11-02T09:54:43;13.80;97.20
11744;DHT22;5929;51.906;7.674;2022-11-02T09:57:14;13.80;97.20
11744;DHT22;5929;51.906;7.674;2022-11-02T09:59:42;13.90;96.70
11744;DHT22;5929;51.906;7.674;2022-11-02T10:02:17;13.90;96.90
11744;DHT22;5929;51.906;7.674;2022-11-02T10:05:05;13.90;96.70
11744;DHT22;5929;51.906;7.674;2022-11-02T10:07:53;13.90;96.40
11744;DHT22;5929;51.906;7.674;2022-11-02T10:10:30;13.80;96.70
11744;DHT22;5929;51.906;7.674;2022-11-02T10:13:02;13.80;96.70
11744;DHT22;5929;51.906;7.674;2022-11-02T10:15:37;13.90;96.40
11744;DHT22;5929;51.906;7.674;2022-11-02T10:18:08;13.80;96.00
11744;DHT22;5929;51.906;7.674;2022-11-02T10:20:43;13.80;95.30
11744;DHT22;5929;51.906;7.674;2022-11-02T10:23:15;13.90;95.70
11744;DHT22;5929;51.906;7.674;2022-11-02T10:25:46;14.10;95.80
11744;DHT22;5929;51.906;7.674;2022-11-02T10:28:15;14.10;95.70
11744;DHT22;5929;51.906;7.674;2022-11-02T10:30:44;14.20;95.30
11744;DHT22;5929;51.906;7.674;2022-11-02T10:33:14;14.20;95.50
11744;DHT22;5929;51.906;7.674;2022-11-02T10:35:51;14.20;95.50
11744;DHT22;5929;51.906;7.674;2022-11-02T10:38:28;14.30;94.70
11744;DHT22;5929;51.906;7.674;2022-11-02T10:41:13;14.20;94.30
11744;DHT22;5929;51.906;7.674;2022-11-02T10:43:56;14.10;94.20
11744;DHT22;5929;51.906;7.674;2022-11-02T10:46:39;14.20;93.70
11744;DHT22;5929;51.906;7.674;2022-11-02T10:49:12;14.40;93.60
11744;DHT22;5929;51.906;7.674;2022-11-02T10:51:42;14.60;93.10
11744;DHT22;5929;51.906;7.674;2022-11-02T10:54:11;15.20;92.10
11744;DHT22;5929;51.906;7.674;2022-11-02T10:56:41;15.70;90.80
11744;DHT22;5929;51.906;7.674;2022-11-02T10:59:13;16.00;90.10
11744;DHT22;5929;51.906;7.674;2022-11-02T11:01:44;16.30;88.80
11744;DHT22;5929;51.906;7.674;2022-11-02T11:04:23;15.90;89.10
11744;DHT22;5929;51.906;7.674;2022-11-02T11:06:50;15.60;89.30
11744;DHT22;5929;51.906;7.674;2022-11-02T11:09:20;16.00;89.10
11744;DHT22;5929;51.906;7.674;2022-11-02T11:11:54;15.90;86.00
11744;DHT22;5929;51.906;7.674;2022-11-02T11:14:22;15.40;87.70
11744;DHT22;5929;51.906;7.674;2022-11-02T11:16:53;15.10;88.40
11744;DHT22;5929;51.906;7.674;2022-11-02T11:19:23;15.30;88.40
11744;DHT22;5929;51.906;7.674;2022-11-02T11:21:51;15.70;87.00
11744;DHT22;5929;51.906;7.674;2022-11-02T11:24:26;15.60;86.70
11744;DHT22;5929;51.906;7.674;2022-11-02T11:27:12;15.80;86.30
11744;DHT22;5929;51.906;7.674;2022-11-02T11:29:45;16.30;85.00
11744;DHT22;5929;51.906;7.674;2022-11-02T11:32:15;16.60;82.90
11744;DHT22;5929;51.906;7.674;2022-11-02T11:34:45;16.30;83.50
11744;DHT22;5929;51.906;7.674;2022-11-02T11:37:16;16.40;84.90
11744;DHT22;5929;51.906;7.674;2022-11-02T11:39:46;16.60;85.50
11744;DHT22;5929;51.906;7.674;2022-11-02T11:42:19;17.40;83.10
11744;DHT22;5929;51.906;7.674;2022-11-02T11:45:03;17.70;81.70
11744;DHT22;5929;51.906;7.674;2022-11-02T11:47:33;18.10;80.60
11744;DHT22;5929;51.906;7.674;2022-11-02T11:50:03;18.20;77.20
11744;DHT22;5929;51.906;7.674;2022-11-02T11:52:33;18.10;78.00
11744;DHT22;5929;51.906;7.674;2022-11-02T11:55:16;18.00;77.50
11744;DHT22;5929;51.906;7.674;2022-11-02T11:57:45;17.10;78.00
11744;DHT22;5929;51.906;7.674;2022-11-02T12:00:33;16.90;79.10
11744;DHT22;5929;51.906;7.674;2022-11-02T12:03:02;17.10;78.40
11744;DHT22;5929;51.906;7.674;2022-11-02T12:05:33;17.00;79.60
11744;DHT22;5929;51.906;7.674;2022-11-02T12:08:21;17.20;78.90
11744;DHT22;5929;51.906;7.674;2022-11-02T12:11:02;17.10;79.60
11744;DHT22;5929;51.906;7.674;2022-11-02T12:13:50;17.10;79.00
11744;DHT22;5929;51.906;7.674;2022-11-02T12:16:28;16.50;79.90
11744;DHT22;5929;51.906;7.674;2022-11-02T12:19:14;16.40;81.40
11744;DHT22;5929;51.906;7.674;2022-11-02T12:21:53;16.70;80.10
11744;DHT22;5929;51.906;7.674;2022-11-02T12:27:38;17.60;78.00
11744;DHT22;5929;51.906;7.674;2022-11-02T12:30:15;17.50;76.20
11744;DHT22;5929;51.906;7.674;2022-11-02T12:33:05;17.80;75.30
11744;DHT22;5929;51.906;7.674;2022-11-02T12:35:44;17.50;74.60
11744;DHT22;5929;51.906;7.674;2022-11-02T12:38:29;17.40;75.10
11744;DHT22;5929;51.906;7.674;2022-11-02T12:41:03;17.80;75.70
11744;DHT22;5929;51.906;7.674;2022-11-02T12:43:38;18.10;75.20
11744;DHT22;5929;51.906;7.674;2022-11-02T12:46:19;17.50;75.60
11744;DHT22;5929;51.906;7.674;2022-11-02T12:48:56;16.90;77.80
11744;DHT22;5929;51.906;7.674;2022-11-02T12:51:28;16.80;78.10
11744;DHT22;5929;51.906;7.674;2022-11-02T12:53:58;16.80;77.80
11744;DHT22;5929;51.906;7.674;2022-11-02T12:56:31;17.00;77.50
11744;DHT22;5929;51.906;7.674;2022-11-02T12:58:59;17.30;77.00
11744;DHT22;5929;51.906;7.674;2022-11-02T13:01:30;17.50;76.60
11744;DHT22;5929;51.906;7.674;2022-11-02T13:04:08;17.90;76.30
11744;DHT22;5929;51.906;7.674;2022-11-02T13:06:40;18.10;75.40
11744;DHT22;5929;51.906;7.674;2022-11-02T13:09:11;18.20;75.30
11744;DHT22;5929;51.906;7.674;2022-11-02T13:11:40;18.20;75.50
11744;DHT22;5929;51.906;7.674;2022-11-02T13:14:11;18.00;76.00
11744;DHT22;5929;51.906;7.674;2022-11-02T13:16:45;17.70;76.20
11744;DHT22;5929;51.906;7.674;2022-11-02T13:19:17;17.50;76.70
11744;DHT22;5929;51.906;7.674;2022-11-02T13:21:48;17.30;77.00
11744;DHT22;5929;51.906;7.674;2022-11-02T13:24:22;17.00;76.90
11744;DHT22;5929;51.906;7.674;2022-11-02T13:26:50;16.70;77.70
11744;DHT22;5929;51.906;7.674;2022-11-02T13:29:25;16.50;79.80
11744;DHT22;5929;51.906;7.674;2022-11-02T13:31:59;16.30;79.20
11744;DHT22;5929;51.906;7.674;2022-11-02T13:34:30;16.10;80.50
11744;DHT22;5929;51.906;7.674;2022-11-02T13:37:04;16.10;79.90
11744;DHT22;5929;51.906;7.674;2022-11-02T13:39:35;15.90;80.60
11744;DHT22;5929;51.906;7.674;2022-11-02T13:42:32;15.70;80.60
11744;DHT22;5929;51.906;7.674;2022-11-02T13:45:22;15.70;81.00
11744;DHT22;5929;51.906;7.674;2022-11-02T13:48:23;15.50;81.20
11744;DHT22;5929;51.906;7.674;2022-11-02T13:50:55;15.40;81.00
11744;DHT22;5929;51.906;7.674;2022-11-02T13:53:27;15.30;81.30
11744;DHT22;5929;51.906;7.674;2022-11-02T13:55:58;15.20;81.30
11744;DHT22;5929;51.906;7.674;2022-11-02T13:58:30;15.20;82.00
11744;DHT22;5929;51.906;7.674;2022-11-02T14:00:59;15.20;81.60
11744;DHT22;5929;51.906;7.674;2022-11-02T14:03:30;15.20;82.20
11744;DHT22;5929;51.906;7.674;2022-11-02T14:06:01;15.10;82.60
11744;DHT22;5929;51.906;7.674;2022-11-02T14:08:36;15.10;82.30
11744;DHT22;5929;51.906;7.674;2022-11-02T14:11:32;15.10;81.90
11744;DHT22;5929;51.906;7.674;2022-11-02T14:14:15;15.10;81.80
11744;DHT22;5929;51.906;7.674;2022-11-02T14:16:45;15.10;81.50
11744;DHT22;5929;51.906;7.674;2022-11-02T14:19:28;15.00;81.40
11744;DHT22;5929;51.906;7.674;2022-11-02T14:22:11;15.00;80.70
11744;DHT22;5929;51.906;7.674;2022-11-02T14:24:53;14.90;80.50
11744;DHT22;5929;51.906;7.674;2022-11-02T14:27:29;14.90;81.30
11744;DHT22;5929;51.906;7.674;2022-11-02T14:29:57;14.90;81.20
11744;DHT22;5929;51.906;7.674;2022-11-02T14:32:47;15.00;80.30
11744;DHT22;5929;51.906;7.674;2022-11-02T14:35:38;15.00;80.20
11744;DHT22;5929;51.906;7.674;2022-11-02T14:38:23;14.90;80.30
11744;DHT22;5929;51.906;7.674;2022-11-02T14:41:00;15.00;80.90
11744;DHT22;5929;51.906;7.674;2022-11-02T14:43:56;14.90;80.30
11744;DHT22;5929;51.906;7.674;2022-11-02T14:46:36;15.00;80.20
11744;DHT22;5929;51.906;7.674;2022-11-02T14:49:05;15.10;80.00
11744;DHT22;5929;51.906;7.674;2022-11-02T14:51:42;15.10;80.60
11744;DHT22;5929;51.906;7.674;2022-11-02T14:54:15;15.10;80.50
11744;DHT22;5929;51.906;7.674;2022-11-02T14:56:48;15.10;81.10
11744;DHT22;5929;51.906;7.674;2022-11-02T14:59:19;15.00;80.70
11744;DHT22;5929;51.906;7.674;2022-11-02T15:01:53;14.90;81.70
11744;DHT22;5929;51.906;7.674;2022-11-02T15:04:21;14.80;81.60
11744;DHT22;5929;51.906;7.674;2022-11-02T15:06:53;14.70;82.40
11744;DHT22;5929;51.906;7.674;2022-11-02T15:09:49;14.60;83.30
11744;DHT22;5929;51.906;7.674;2022-11-02T15:12:32;14.50;83.90
11744;DHT22;5929;51.906;7.674;2022-11-02T15:15:30;14.40;84.40
11744;DHT22;5929;51.906;7.674;2022-11-02T15:18:12;14.30;84.00
11744;DHT22;5929;51.906;7.674;2022-11-02T15:20:45;14.30;84.00
11744;DHT22;5929;51.906;7.674;2022-11-02T15:23:22;14.30;84.90
11744;DHT22;5929;51.906;7.674;2022-11-02T15:25:52;14.20;85.90
11744;DHT22;5929;51.906;7.674;2022-11-02T15:28:23;14.20;85.90
11744;DHT22;5929;51.906;7.674;2022-11-02T15:30:52;14.10;86.40
11744;DHT22;5929;51.906;7.674;2022-11-02T15:33:32;14.10;86.30
11744;DHT22;5929;51.906;7.674;2022-11-02T15:36:00;14.00;87.60
11744;DHT22;5929;51.906;7.674;2022-11-02T15:38:29;13.90;87.90
11744;DHT22;5929;51.906;7.674;2022-11-02T15:41:04;13.80;87.80
11744;DHT22;5929;51.906;7.674;2022-11-02T15:43:50;13.70;88.90
11744;DHT22;5929;51.906;7.674;2022-11-02T15:46:29;13.60;90.50
11744;DHT22;5929;51.906;7.674;2022-11-02T15:49:10;13.40;91.30
11744;DHT22;5929;51.906;7.674;2022-11-02T15:51:46;13.20;91.40
11744;DHT22;5929;51.906;7.674;2022-11-02T15:57:29;12.90;92.00
11744;DHT22;5929;51.906;7.674;2022-11-02T16:00:14;12.80;92.70
11744;DHT22;5929;51.906;7.674;2022-11-02T16:02:45;12.60;93.20
11744;DHT22;5929;51.906;7.674;2022-11-02T16:05:19;12.50;93.50
11744;DHT22;5929;51.906;7.674;2022-11-02T16:07:49;12.40;93.90
11744;DHT22;5929;51.906;7.674;2022-11-02T16:10:24;12.40;94.60
11744;DHT22;5929;51.906;7.674;2022-11-02T16:12:59;12.20;95.00
11744;DHT22;5929;51.906;7.674;2022-11-02T16:15:27;12.10;95.00
11744;DHT22;5929;51.906;7.674;2022-11-02T16:17:54;12.00;95.30
11744;DHT22;5929;51.906;7.674;2022-11-02T16:20:22;12.00;96.00
11744;DHT22;5929;51.906;7.674;2022-11-02T16:22:52;11.90;96.10